Terminal Aerodrome Forecast
Issued by NWS Charleston, WV

Current Version | Previous Version | Graphics & Text | Print | Product List | Glossary On
Versions: 1 2 3 4 5 6 7 8 9 10 11 12 13 14 15 16 17 18 19 20 21 22
000
FTUS41 KRLX 301120
TAFBKW
TAF
KBKW 301120Z 3012/3112 VRB03KT 6SM BR VCTS SCT015 BKN045CB
      TEMPO 3012/3014 3SM SHRA BR BKN015
     FM301400 28004KT P6SM BKN020
     FM301800 31008KT P6SM BKN020
     FM302000 31009KT P6SM SCT035
     FM310100 31005KT P6SM FEW045=

USA.gov is the U.S. government's official web portal to all federal, state and local government web resources and services.